^^
Your Local Weather - Clay, NY Station Historical Data
Daily Summary for January 22, 2018 Units:  English    Metric   Both
« Previous Day
Next Day »
Daily Weekly Monthly Yearly Custom
  High: Low: Average:
Temperature: 37.0 °F 34.1 °F 35.5 °F
Dew Point: 34.9 °F 31.0 °F 33.2 °F
Humidity: 93% 87% 91%
Wind Speed: 6.0mph 0.0mph 3mph
Wind Gust: 12.0mph - -
Wind- - ENE
Pressure: 30.12 in 29.75 in -
Precipitation: 0.07 in    
Historical Graphs
 
 
Tabular Data for January 22, 2018
Time Temperature Dew Point Pressure Wind Wind Speed Wind Gust Humidity Rainfall Rate (Hourly) solar
00:10 34.5 °F 31.0 °F 30.08 in East 1.0 mph 2.0 mph 87% 0.00 in 0 W/m2
00:22 34.5 °F 31.3 °F 30.08 in Calm   2.0 mph 88% 0.00 in 0 W/m2
00:28 34.5 °F 31.3 °F 30.08 in Calm   2.0 mph 88% 0.00 in 0 W/m2
00:40 34.5 °F 31.3 °F 30.07 in ENE 2.0 mph 3.0 mph 88% 0.00 in 0 W/m2
00:46 34.6 °F 31.4 °F 30.08 in ENE 3.0 mph 3.0 mph 88% 0.00 in 0 W/m2
00:58 34.6 °F 31.4 °F 30.08 in East 1.0 mph 3.0 mph 88% 0.00 in 0 W/m2
01:04 34.6 °F 31.4 °F 30.07 in East 1.0 mph 2.0 mph 88% 0.00 in 0 W/m2
01:10 34.6 °F 31.4 °F 30.07 in East 1.0 mph 1.0 mph 88% 0.00 in 0 W/m2
01:16 34.6 °F 31.7 °F 30.07 in East 2.0 mph 2.0 mph 89% 0.00 in 0 W/m2
01:22 34.6 °F 31.7 °F 30.07 in ENE 2.0 mph 3.0 mph 89% 0.00 in 0 W/m2
01:28 34.5 °F 31.6 °F 30.07 in ENE 1.0 mph 3.0 mph 89% 0.00 in 0 W/m2
01:34 34.5 °F 31.6 °F 30.07 in ENE 2.0 mph 3.0 mph 89% 0.00 in 0 W/m2
01:40 34.5 °F 31.6 °F 30.08 in ENE 2.0 mph 2.0 mph 89% 0.00 in 0 W/m2
01:52 34.5 °F 31.6 °F 30.08 in ENE 1.0 mph 1.0 mph 89% 0.00 in 0 W/m2
02:10 34.4 °F 31.8 °F 30.08 in ENE 1.0 mph 1.0 mph 90% 0.00 in 0 W/m2
02:16 34.3 °F 31.7 °F 30.08 in East 1.0 mph 2.0 mph 90% 0.00 in 0 W/m2
02:22 34.3 °F 31.7 °F 30.08 in NE 2.0 mph 2.0 mph 90% 0.00 in 0 W/m2
02:28 34.4 °F 31.8 °F 30.08 in ENE 1.0 mph 4.0 mph 90% 0.00 in 0 W/m2
02:34 34.4 °F 31.8 °F 30.08 in ENE 1.0 mph 3.0 mph 90% 0.00 in 0 W/m2
02:40 34.3 °F 31.7 °F 30.08 in East 2.0 mph 2.0 mph 90% 0.00 in 0 W/m2
02:46 34.3 °F 31.7 °F 30.08 in East 1.0 mph 2.0 mph 90% 0.00 in 0 W/m2
02:58 34.3 °F 31.7 °F 30.08 in East 1.0 mph 2.0 mph 90% 0.00 in 0 W/m2
03:04 34.2 °F 31.6 °F 30.08 in East 1.0 mph 3.0 mph 90% 0.00 in 0 W/m2
03:10 34.2 °F 31.8 °F 30.08 in East 1.0 mph 1.0 mph 91% 0.00 in 0 W/m2
03:16 34.2 °F 31.8 °F 30.07 in East 1.0 mph 1.0 mph 91% 0.00 in 0 W/m2
03:22 34.2 °F 31.8 °F 30.07 in Calm   3.0 mph 91% 0.00 in 0 W/m2
03:28 34.1 °F 31.7 °F 30.07 in East 1.0 mph 3.0 mph 91% 0.00 in 0 W/m2
03:34 34.2 °F 31.8 °F 30.07 in ENE 1.0 mph 2.0 mph 91% 0.00 in 0 W/m2
03:40 34.2 °F 31.8 °F 30.07 in ENE 1.0 mph 1.0 mph 91% 0.00 in 0 W/m2
03:46 34.2 °F 31.8 °F 30.07 in ENE 1.0 mph 2.0 mph 91% 0.00 in 0 W/m2
03:52 34.2 °F 31.8 °F 30.07 in ENE 1.0 mph 1.0 mph 91% 0.00 in 0 W/m2
03:58 34.2 °F 31.8 °F 30.07 in ENE 1.0 mph 1.0 mph 91% 0.00 in 0 W/m2
04:04 34.1 °F 31.7 °F 30.07 in Calm   1.0 mph 91% 0.00 in 0 W/m2
04:10 34.1 °F 31.7 °F 30.07 in ENE 1.0 mph 1.0 mph 91% 0.00 in 0 W/m2
04:16 34.2 °F 31.8 °F 30.07 in ENE 2.0 mph 3.0 mph 91% 0.00 in 0 W/m2
04:22 34.2 °F 31.8 °F 30.07 in East 1.0 mph 2.0 mph 91% 0.00 in 0 W/m2
04:34 34.1 °F 31.7 °F 30.07 in ENE 2.0 mph 2.0 mph 91% 0.00 in 0 W/m2
04:40 34.1 °F 31.7 °F 30.08 in East 2.0 mph 2.0 mph 91% 0.00 in 0 W/m2
04:46 34.1 °F 31.7 °F 30.07 in ENE 2.0 mph 4.0 mph 91% 0.00 in 0 W/m2
04:52 34.1 °F 31.7 °F 30.08 in ENE 2.0 mph 2.0 mph 91% 0.00 in 0 W/m2
04:58 34.2 °F 31.8 °F 30.08 in ENE 2.0 mph 4.0 mph 91% 0.00 in 0 W/m2
05:04 34.2 °F 31.8 °F 30.08 in ENE 2.0 mph 4.0 mph 91% 0.00 in 0 W/m2
05:10 34.3 °F 31.9 °F 30.08 in East 2.0 mph 2.0 mph 91% 0.00 in 0 W/m2
05:16 34.3 °F 31.9 °F 30.09 in East 2.0 mph 5.0 mph 91% 0.00 in 0 W/m2
05:22 34.3 °F 31.9 °F 30.09 in East 3.0 mph 3.0 mph 91% 0.00 in 0 W/m2
05:28 34.4 °F 32.0 °F 30.09 in East 2.0 mph 5.0 mph 91% 0.00 in 0 W/m2
05:34 34.4 °F 32.0 °F 30.09 in NE 2.0 mph 3.0 mph 91% 0.00 in 0 W/m2
05:40 34.4 °F 32.0 °F 30.10 in ENE 2.0 mph 3.0 mph 91% 0.00 in 0 W/m2
05:46 34.3 °F 31.9 °F 30.10 in ENE 1.0 mph 3.0 mph 91% 0.00 in 0 W/m2
05:58 34.4 °F 32.0 °F 30.10 in ENE 2.0 mph 2.0 mph 91% 0.00 in 0 W/m2
06:04 34.4 °F 32.0 °F 30.10 in ENE 2.0 mph 2.0 mph 91% 0.00 in 0 W/m2
06:10 34.4 °F 32.0 °F 30.09 in ENE 2.0 mph 3.0 mph 91% 0.00 in 0 W/m2
06:16 34.4 °F 32.0 °F 30.09 in ENE 3.0 mph 6.0 mph 91% 0.00 in 0 W/m2
06:22 34.3 °F 31.9 °F 30.08 in ESE 3.0 mph 7.0 mph 91% 0.00 in 0 W/m2
06:28 34.3 °F 31.9 °F 30.08 in SE 3.0 mph 7.0 mph 91% 0.00 in 0 W/m2
06:34 34.3 °F 31.9 °F 30.08 in ENE 2.0 mph 4.0 mph 91% 0.00 in 0 W/m2
06:40 34.3 °F 32.2 °F 30.08 in ESE 3.0 mph 3.0 mph 92% 0.00 in 0 W/m2
06:46 34.3 °F 32.2 °F 30.09 in SSE 2.0 mph 3.0 mph 92% 0.00 in 0 W/m2
06:52 34.2 °F 32.1 °F 30.09 in ESE 2.0 mph 2.0 mph 92% 0.00 in 0 W/m2
06:58 34.2 °F 32.1 °F 30.09 in ESE 1.0 mph 2.0 mph 92% 0.00 in 0 W/m2
07:04 34.2 °F 32.1 °F 30.10 in ESE 1.0 mph 2.0 mph 92% 0.00 in 0 W/m2
07:10 34.2 °F 32.1 °F 30.10 in Calm   3.0 mph 92% 0.00 in 0 W/m2
07:16 34.2 °F 32.1 °F 30.10 in ENE 1.0 mph 3.0 mph 92% 0.00 in 0 W/m2
07:22 34.2 °F 32.1 °F 30.10 in ENE 1.0 mph 2.0 mph 92% 0.00 in 0 W/m2
07:28 34.2 °F 32.1 °F 30.10 in NE 1.0 mph 2.0 mph 92% 0.00 in 0 W/m2
07:34 34.2 °F 32.1 °F 30.11 in NE 1.0 mph 1.0 mph 92% 0.00 in 0 W/m2
07:40 34.2 °F 32.1 °F 30.11 in NE 1.0 mph 2.0 mph 92% 0.00 in 0 W/m2
07:52 34.2 °F 32.1 °F 30.11 in ENE 2.0 mph 3.0 mph 92% 0.00 in 7 W/m2
07:58 34.3 °F 32.2 °F 30.11 in NNE 2.0 mph 3.0 mph 92% 0.00 in 9 W/m2
08:04 34.3 °F 32.2 °F 30.11 in ESE 3.0 mph 4.0 mph 92% 0.00 in 9 W/m2
08:10 34.4 °F 32.3 °F 30.11 in ENE 2.0 mph 2.0 mph 92% 0.00 in 11 W/m2
08:16 34.4 °F 32.3 °F 30.11 in East 2.0 mph 7.0 mph 92% 0.00 in 12 W/m2
08:28 34.5 °F 32.4 °F 30.11 in ENE 3.0 mph 8.0 mph 92% 0.00 in 26 W/m2
08:34 34.6 °F 32.5 °F 30.11 in ENE 3.0 mph 3.0 mph 92% 0.00 in 32 W/m2
08:40 34.7 °F 32.6 °F 30.11 in East 3.0 mph 8.0 mph 92% 0.00 in 33 W/m2
08:46 34.7 °F 32.6 °F 30.10 in East 3.0 mph 8.0 mph 92% 0.00 in 40 W/m2
08:58 34.9 °F 32.8 °F 30.11 in ENE 4.0 mph 8.0 mph 92% 0.00 in 53 W/m2
09:04 35.0 °F 32.9 °F 30.11 in NE 3.0 mph 5.0 mph 92% 0.00 in 54 W/m2
09:10 35.2 °F 32.8 °F 30.12 in East 3.0 mph 3.0 mph 91% 0.00 in 46 W/m2
09:16 35.2 °F 32.8 °F 30.12 in ENE 3.0 mph 5.0 mph 91% 0.00 in 53 W/m2
09:28 35.4 °F 33.0 °F 30.11 in East 3.0 mph 4.0 mph 91% 0.00 in 65 W/m2
09:34 35.5 °F 33.1 °F 30.11 in South 2.0 mph 3.0 mph 91% 0.00 in 74 W/m2
09:40 35.6 °F 33.2 °F 30.11 in East 2.0 mph 2.0 mph 91% 0.00 in 67 W/m2
09:46 35.7 °F 33.1 °F 30.11 in ESE 2.0 mph 2.0 mph 90% 0.00 in 88 W/m2
09:58 36.0 °F 33.4 °F 30.10 in East 2.0 mph 8.0 mph 90% 0.00 in 100 W/m2
10:04 36.1 °F 33.5 °F 30.11 in East 3.0 mph 3.0 mph 90% 0.00 in 67 W/m2
10:10 36.1 °F 33.5 °F 30.11 in East 2.0 mph 2.0 mph 90% 0.00 in 49 W/m2
10:16 36.1 °F 33.2 °F 30.11 in East 2.0 mph 7.0 mph 89% 0.00 in 42 W/m2
10:22 36.0 °F 33.1 °F 30.10 in ESE 4.0 mph 4.0 mph 89% 0.00 in 46 W/m2
10:28 36.0 °F 33.1 °F 30.10 in East 3.0 mph 5.0 mph 89% 0.00 in 53 W/m2
10:34 36.1 °F 33.2 °F 30.10 in ESE 4.0 mph 4.0 mph 89% 0.00 in 46 W/m2
10:40 36.2 °F 33.3 °F 30.09 in East 3.0 mph 5.0 mph 89% 0.00 in 49 W/m2
10:46 36.2 °F 33.0 °F 30.10 in ESE 3.0 mph 6.0 mph 88% 0.00 in 49 W/m2
10:52 36.3 °F 33.1 °F 30.10 in ENE 3.0 mph 5.0 mph 88% 0.00 in 46 W/m2
10:58 36.4 °F 33.2 °F 30.09 in East 4.0 mph 8.0 mph 88% 0.00 in 49 W/m2
11:06 36.3 °F 33.1 °F 30.08 in ENE 3.0 mph 8.0 mph 88% 0.00 in 60 W/m2
11:12 36.4 °F 33.2 °F 30.08 in ENE 3.0 mph 4.0 mph 88% 0.00 in 65 W/m2
11:18 36.4 °F 32.9 °F 30.07 in NE 5.0 mph 7.0 mph 87% 0.00 in 70 W/m2
11:26 36.4 °F 32.9 °F 30.07 in East 4.0 mph 5.0 mph 87% 0.00 in 69 W/m2
11:32 36.4 °F 33.2 °F 30.06 in ESE 4.0 mph 8.0 mph 88% 0.00 in 84 W/m2
11:38 36.6 °F 33.4 °F 30.06 in ENE 5.0 mph 8.0 mph 88% 0.00 in 72 W/m2
11:44 36.7 °F 33.2 °F 30.06 in ENE 4.0 mph 5.0 mph 87% 0.00 in 62 W/m2
11:50 36.7 °F 33.2 °F 30.05 in ENE 4.0 mph 8.0 mph 87% 0.00 in 58 W/m2
11:56 36.8 °F 33.3 °F 30.05 in ENE 5.0 mph 8.0 mph 87% 0.00 in 54 W/m2
12:02 36.8 °F 33.3 °F 30.05 in SE 4.0 mph 4.0 mph 87% 0.00 in 28 W/m2
12:08 36.8 °F 33.3 °F 30.04 in ENE 4.0 mph 5.0 mph 87% 0.00 in 35 W/m2
12:14 36.8 °F 33.3 °F 30.03 in East 4.0 mph 4.0 mph 87% 0.00 in 47 W/m2
12:20 36.9 °F 33.4 °F 30.02 in East 4.0 mph 4.0 mph 87% 0.00 in 65 W/m2
12:26 37.0 °F 33.5 °F 30.02 in East 4.0 mph 4.0 mph 87% 0.00 in 56 W/m2
12:32 36.9 °F 33.4 °F 30.02 in ENE 3.0 mph 5.0 mph 87% 0.00 in 42 W/m2
12:38 36.8 °F 33.3 °F 30.01 in NE 4.0 mph 8.0 mph 87% 0.00 in 51 W/m2
12:44 36.7 °F 33.5 °F 30.01 in East 4.0 mph 7.0 mph 88% 0.00 in 42 W/m2
12:50 36.7 °F 33.5 °F 30.00 in ENE 4.0 mph 8.0 mph 88% 0.00 in 42 W/m2
12:56 36.7 °F 33.5 °F 30.00 in ENE 4.0 mph 8.0 mph 88% 0.00 in 33 W/m2
13:02 36.7 °F 33.5 °F 30.00 in ENE 4.0 mph 10.0 mph 88% 0.00 in 30 W/m2
13:08 36.7 °F 33.5 °F 30.00 in East 5.0 mph 10.0 mph 88% 0.00 in 33 W/m2
13:14 36.7 °F 33.5 °F 29.99 in ENE 5.0 mph 8.0 mph 88% 0.00 in 28 W/m2
13:20 36.6 °F 33.4 °F 29.99 in ENE 5.0 mph 5.0 mph 88% 0.00 in 25 W/m2
13:26 36.5 °F 33.6 °F 29.98 in ENE 5.0 mph 5.0 mph 89% 0.00 in 33 W/m2
13:32 36.5 °F 33.6 °F 29.98 in East 5.0 mph 6.0 mph 89% 0.00 in 25 W/m2
13:38 36.3 °F 33.6 °F 29.97 in ENE 5.0 mph 7.0 mph 90% 0.00 in 60 W/m2
13:44 36.3 °F 33.6 °F 29.97 in East 5.0 mph 7.0 mph 90% 0.00 in 42 W/m2
13:50 36.3 °F 33.6 °F 29.96 in ENE 5.0 mph 9.0 mph 90% 0.00 in 42 W/m2
13:56 36.3 °F 33.6 °F 29.96 in ENE 5.0 mph 9.0 mph 90% 0.06 in 54 W/m2
14:02 36.2 °F 33.8 °F 29.96 in NE 5.0 mph 5.0 mph 91% 0.06 in 33 W/m2
14:08 36.2 °F 33.8 °F 29.96 in SE 5.0 mph 7.0 mph 91% 0.04 in 32 W/m2
14:14 36.2 °F 33.8 °F 29.96 in ENE 5.0 mph 5.0 mph 91% 0.00 in 30 W/m2
14:20 36.1 °F 33.7 °F 29.96 in ENE 4.0 mph 4.0 mph 91% 0.00 in 19 W/m2
14:26 36.1 °F 33.7 °F 29.96 in East 3.0 mph 4.0 mph 91% 0.00 in 18 W/m2
14:32 36.0 °F 33.6 °F 29.96 in East 3.0 mph 3.0 mph 91% 0.00 in 16 W/m2
14:38 35.9 °F 33.5 °F 29.95 in East 3.0 mph 3.0 mph 91% 0.00 in 49 W/m2
14:44 35.9 °F 33.5 °F 29.94 in ENE 5.0 mph 7.0 mph 91% 0.00 in 54 W/m2
14:50 35.8 °F 33.7 °F 29.93 in East 6.0 mph 10.0 mph 92% 0.00 in 39 W/m2
14:56 35.9 °F 33.8 °F 29.94 in ESE 5.0 mph 10.0 mph 92% 0.05 in 79 W/m2
15:02 35.9 °F 33.8 °F 29.94 in East 5.0 mph 5.0 mph 92% 0.05 in 60 W/m2
15:08 36.0 °F 33.9 °F 29.94 in NE 4.0 mph 5.0 mph 92% 0.04 in 65 W/m2
15:14 36.0 °F 33.9 °F 29.93 in East 4.0 mph 7.0 mph 92% 0.04 in 54 W/m2
15:20 36.0 °F 33.9 °F 29.94 in East 4.0 mph 4.0 mph 92% 0.04 in 32 W/m2
15:26 36.0 °F 33.9 °F 29.94 in East 3.0 mph 8.0 mph 92% 0.04 in 23 W/m2
15:32 35.9 °F 33.8 °F 29.93 in ESE 3.0 mph 3.0 mph 92% 0.00 in 28 W/m2
15:38 35.9 °F 33.8 °F 29.93 in ESE 3.0 mph 5.0 mph 92% 0.00 in 49 W/m2
15:44 36.0 °F 33.9 °F 29.94 in ENE 4.0 mph 5.0 mph 92% 0.00 in 47 W/m2
15:50 36.1 °F 34.0 °F 29.94 in ESE 3.0 mph 5.0 mph 92% 0.00 in 32 W/m2
15:56 36.1 °F 34.0 °F 29.94 in ENE 3.0 mph 5.0 mph 92% 0.00 in 21 W/m2
16:02 36.1 °F 34.0 °F 29.93 in East 4.0 mph 8.0 mph 92% 0.00 in 28 W/m2
16:08 36.0 °F 34.2 °F 29.93 in East 4.0 mph 8.0 mph 93% 0.00 in 23 W/m2
16:14 35.9 °F 34.1 °F 29.93 in East 4.0 mph 7.0 mph 93% 0.00 in 26 W/m2
16:20 35.9 °F 34.1 °F 29.93 in ESE 5.0 mph 5.0 mph 93% 0.00 in 18 W/m2
16:26 35.9 °F 34.1 °F 29.93 in East 5.0 mph 12.0 mph 93% 0.00 in 12 W/m2
16:32 35.8 °F 34.0 °F 29.93 in ENE 5.0 mph 7.0 mph 93% 0.00 in 18 W/m2
16:38 35.9 °F 34.1 °F 29.92 in ENE 4.0 mph 7.0 mph 93% 0.00 in 16 W/m2
16:44 35.8 °F 34.0 °F 29.91 in East 4.0 mph 4.0 mph 93% 0.00 in 12 W/m2
16:50 35.8 °F 34.0 °F 29.91 in ENE 5.0 mph 5.0 mph 93% 0.00 in 5 W/m2
16:56 35.7 °F 33.9 °F 29.91 in East 5.0 mph 5.0 mph 93% 0.00 in 0 W/m2
17:02 35.6 °F 33.8 °F 29.91 in ENE 4.0 mph 7.0 mph 93% 0.00 in 0 W/m2
17:08 35.7 °F 33.9 °F 29.91 in ENE 3.0 mph 7.0 mph 93% 0.00 in 0 W/m2
17:14 35.7 °F 33.9 °F 29.91 in NE 3.0 mph 5.0 mph 93% 0.00 in 0 W/m2
17:20 35.7 °F 33.9 °F 29.92 in NE 2.0 mph 3.0 mph 93% 0.00 in 0 W/m2
17:26 35.7 °F 33.9 °F 29.91 in NE 2.0 mph 3.0 mph 93% 0.00 in 0 W/m2
17:32 35.7 °F 33.9 °F 29.91 in ENE 3.0 mph 4.0 mph 93% 0.00 in 0 W/m2
17:38 35.8 °F 34.0 °F 29.91 in NE 4.0 mph 4.0 mph 93% 0.00 in 0 W/m2
17:44 35.8 °F 34.0 °F 29.91 in NE 4.0 mph 4.0 mph 93% 0.00 in 0 W/m2
17:50 35.7 °F 33.9 °F 29.90 in East 3.0 mph 5.0 mph 93% 0.00 in 0 W/m2
17:56 35.8 °F 34.0 °F 29.90 in ENE 4.0 mph 10.0 mph 93% 0.00 in 0 W/m2
18:02 35.7 °F 33.9 °F 29.90 in ENE 4.0 mph 5.0 mph 93% 0.00 in 0 W/m2
18:08 35.7 °F 33.9 °F 29.90 in ENE 4.0 mph 5.0 mph 93% 0.00 in 0 W/m2
18:14 35.7 °F 33.9 °F 29.90 in East 5.0 mph 5.0 mph 93% 0.00 in 0 W/m2
18:20 35.7 °F 33.9 °F 29.90 in East 5.0 mph 7.0 mph 93% 0.00 in 0 W/m2
18:32 35.7 °F 33.9 °F 29.90 in ENE 5.0 mph 8.0 mph 93% 0.00 in 0 W/m2
18:38 35.7 °F 33.9 °F 29.90 in East 4.0 mph 8.0 mph 93% 0.00 in 0 W/m2
18:44 35.8 °F 34.0 °F 29.89 in ESE 5.0 mph 7.0 mph 93% 0.00 in 0 W/m2
18:50 35.9 °F 34.1 °F 29.89 in ENE 5.0 mph 5.0 mph 93% 0.00 in 0 W/m2
18:56 36.0 °F 34.2 °F 29.89 in East 4.0 mph 5.0 mph 93% 0.00 in 0 W/m2
19:03 36.0 °F 34.2 °F 29.88 in ENE 4.0 mph 8.0 mph 93% 0.00 in 0 W/m2
19:08 36.0 °F 34.2 °F 29.88 in East 5.0 mph 8.0 mph 93% 0.00 in 0 W/m2
19:14 36.1 °F 34.3 °F 29.88 in ENE 5.0 mph 8.0 mph 93% 0.00 in 0 W/m2
19:20 36.0 °F 34.2 °F 29.88 in East 4.0 mph 4.0 mph 93% 0.00 in 0 W/m2
19:26 36.1 °F 34.3 °F 29.87 in ENE 4.0 mph 7.0 mph 93% 0.00 in 0 W/m2
19:44 36.4 °F 34.6 °F 29.87 in ENE 4.0 mph 6.0 mph 93% 0.00 in 0 W/m2
19:50 36.4 °F 34.6 °F 29.86 in ENE 5.0 mph 7.0 mph 93% 0.00 in 0 W/m2
19:56 36.5 °F 34.7 °F 29.87 in ENE 4.0 mph 8.0 mph 93% 0.00 in 0 W/m2
20:14 36.7 °F 34.9 °F 29.86 in ENE 4.0 mph 7.0 mph 93% 0.00 in 0 W/m2
20:20 36.6 °F 34.8 °F 29.86 in East 5.0 mph 5.0 mph 93% 0.00 in 0 W/m2
20:26 36.6 °F 34.8 °F 29.86 in ENE 5.0 mph 8.0 mph 93% 0.00 in 0 W/m2
20:38 36.6 °F 34.8 °F 29.86 in ENE 4.0 mph 7.0 mph 93% 0.00 in 0 W/m2
20:44 36.5 °F 34.7 °F 29.86 in ENE 3.0 mph 4.0 mph 93% 0.00 in 0 W/m2
20:50 36.5 °F 34.7 °F 29.85 in ENE 2.0 mph 5.0 mph 93% 0.00 in 0 W/m2
20:56 36.5 °F 34.7 °F 29.85 in ENE 3.0 mph 8.0 mph 93% 0.00 in 0 W/m2
21:02 36.6 °F 34.8 °F 29.85 in ENE 3.0 mph 4.0 mph 93% 0.00 in 0 W/m2
21:14 36.1 °F 34.3 °F 29.84 in ENE 3.0 mph 4.0 mph 93% 0.00 in 0 W/m2
21:20 36.5 °F 34.7 °F 29.85 in ENE 2.0 mph 3.0 mph 93% 0.00 in 0 W/m2
21:26 36.6 °F 34.8 °F 29.85 in ENE 2.0 mph 5.0 mph 93% 0.00 in 0 W/m2
21:38 36.6 °F 34.8 °F 29.84 in ENE 4.0 mph 5.0 mph 93% 0.00 in 0 W/m2
21:44 36.4 °F 34.6 °F 29.84 in ESE 4.0 mph 5.0 mph 93% 0.00 in 0 W/m2
21:50 36.5 °F 34.7 °F 29.83 in East 4.0 mph 4.0 mph 93% 0.00 in 0 W/m2
21:56 36.4 °F 34.6 °F 29.83 in ENE 3.0 mph 6.0 mph 93% 0.00 in 0 W/m2
22:02 36.3 °F 34.5 °F 29.83 in NE 3.0 mph 3.0 mph 93% 0.00 in 0 W/m2
22:14 36.5 °F 34.7 °F 29.82 in East 4.0 mph 5.0 mph 93% 0.00 in 0 W/m2
22:20 36.5 °F 34.7 °F 29.82 in NE 4.0 mph 6.0 mph 93% 0.00 in 0 W/m2
22:26 36.6 °F 34.8 °F 29.82 in ENE 4.0 mph 6.0 mph 93% 0.00 in 0 W/m2
22:32 36.7 °F 34.9 °F 29.82 in East 3.0 mph 5.0 mph 93% 0.00 in 0 W/m2
22:38 36.7 °F 34.9 °F 29.82 in ENE 3.0 mph 5.0 mph 93% 0.00 in 0 W/m2
22:50 36.6 °F 34.8 °F 29.82 in NE 3.0 mph 4.0 mph 93% 0.00 in 0 W/m2
22:56 36.6 °F 34.8 °F 29.80 in East 4.0 mph 7.0 mph 93% 0.00 in 0 W/m2
23:02 36.5 °F 34.7 °F 29.80 in NE 4.0 mph 5.0 mph 93% 0.00 in 0 W/m2
23:08 36.8 °F 34.7 °F 29.80 in East 3.0 mph 6.0 mph 92% 0.00 in 0 W/m2
23:14 36.6 °F 34.5 °F 29.79 in ENE 3.0 mph 4.0 mph 92% 0.00 in 0 W/m2
23:20 36.6 °F 34.5 °F 29.79 in ENE 3.0 mph 3.0 mph 92% 0.00 in 0 W/m2
23:26 36.6 °F 34.5 °F 29.78 in ENE 4.0 mph 4.0 mph 92% 0.00 in 0 W/m2
23:32 36.6 °F 34.5 °F 29.78 in East 3.0 mph 6.0 mph 92% 0.00 in 0 W/m2
23:44 36.7 °F 34.6 °F 29.77 in NE 2.0 mph 2.0 mph 92% 0.00 in 0 W/m2
23:50 36.5 °F 34.4 °F 29.76 in ENE 1.0 mph 2.0 mph 92% 0.00 in 0 W/m2
23:56 36.6 °F 34.5 °F 29.75 in NE 1.0 mph 2.0 mph 92% 0.00 in 0 W/m2
Country Meadow, Clay, NY, USA
Compliments of Weather Underground - 2 mb